sensor_id;sensor_type;location;lat;lon;timestamp;temperature;humidity
36444;DHT22;24692;45.642;13.806;2022-12-07T00:01:25;8.90;99.90
36444;DHT22;24692;45.642;13.806;2022-12-07T00:03:54;8.90;99.90
36444;DHT22;24692;45.642;13.806;2022-12-07T00:06:22;8.80;99.90
36444;DHT22;24692;45.642;13.806;2022-12-07T00:08:48;8.80;99.90
36444;DHT22;24692;45.642;13.806;2022-12-07T00:11:20;8.80;99.90
36444;DHT22;24692;45.642;13.806;2022-12-07T00:13:47;8.80;99.90
36444;DHT22;24692;45.642;13.806;2022-12-07T00:16:15;8.80;99.90
36444;DHT22;24692;45.642;13.806;2022-12-07T00:18:42;8.70;99.90
36444;DHT22;24692;45.642;13.806;2022-12-07T00:21:16;8.70;99.90
36444;DHT22;24692;45.642;13.806;2022-12-07T00:23:43;8.70;99.90
36444;DHT22;24692;45.642;13.806;2022-12-07T00:26:12;8.80;99.90
36444;DHT22;24692;45.642;13.806;2022-12-07T00:28:38;8.80;99.90
36444;DHT22;24692;45.642;13.806;2022-12-07T00:31:07;8.80;99.90
36444;DHT22;24692;45.642;13.806;2022-12-07T00:33:34;8.90;99.90
36444;DHT22;24692;45.642;13.806;2022-12-07T00:36:01;8.80;99.90
36444;DHT22;24692;45.642;13.806;2022-12-07T00:38:31;8.90;99.90
36444;DHT22;24692;45.642;13.806;2022-12-07T00:40:58;8.80;99.90
36444;DHT22;24692;45.642;13.806;2022-12-07T00:43:24;8.80;99.90
36444;DHT22;24692;45.642;13.806;2022-12-07T00:45:51;8.80;99.90
36444;DHT22;24692;45.642;13.806;2022-12-07T00:48:16;8.80;99.90
36444;DHT22;24692;45.642;13.806;2022-12-07T00:50:42;8.80;99.90
36444;DHT22;24692;45.642;13.806;2022-12-07T00:53:08;8.70;99.90
36444;DHT22;24692;45.642;13.806;2022-12-07T00:55:34;8.70;99.90
36444;DHT22;24692;45.642;13.806;2022-12-07T00:58:00;8.70;99.90
36444;DHT22;24692;45.642;13.806;2022-12-07T01:00:25;8.70;99.90
36444;DHT22;24692;45.642;13.806;2022-12-07T01:02:52;8.60;99.90
36444;DHT22;24692;45.642;13.806;2022-12-07T01:05:18;8.50;99.90
36444;DHT22;24692;45.642;13.806;2022-12-07T01:07:43;8.40;99.90
36444;DHT22;24692;45.642;13.806;2022-12-07T01:10:09;8.40;99.90
36444;DHT22;24692;45.642;13.806;2022-12-07T01:12:35;8.40;99.90
36444;DHT22;24692;45.642;13.806;2022-12-07T01:15:01;8.50;99.90
36444;DHT22;24692;45.642;13.806;2022-12-07T01:17:28;8.40;99.90
36444;DHT22;24692;45.642;13.806;2022-12-07T01:19:53;8.40;99.90
36444;DHT22;24692;45.642;13.806;2022-12-07T01:22:19;8.40;99.90
36444;DHT22;24692;45.642;13.806;2022-12-07T01:24:45;8.40;99.90
36444;DHT22;24692;45.642;13.806;2022-12-07T01:27:12;8.30;99.90
36444;DHT22;24692;45.642;13.806;2022-12-07T01:29:38;8.10;99.90
36444;DHT22;24692;45.642;13.806;2022-12-07T01:32:04;8.10;99.90
36444;DHT22;24692;45.642;13.806;2022-12-07T01:34:29;8.00;99.90
36444;DHT22;24692;45.642;13.806;2022-12-07T01:36:55;7.90;99.90
36444;DHT22;24692;45.642;13.806;2022-12-07T01:39:21;7.80;99.90
36444;DHT22;24692;45.642;13.806;2022-12-07T01:41:47;7.80;99.90
36444;DHT22;24692;45.642;13.806;2022-12-07T01:46:47;7.70;99.90
36444;DHT22;24692;45.642;13.806;2022-12-07T01:51:49;7.50;99.90
36444;DHT22;24692;45.642;13.806;2022-12-07T01:54:16;7.60;99.90
36444;DHT22;24692;45.642;13.806;2022-12-07T01:56:48;7.50;99.90
36444;DHT22;24692;45.642;13.806;2022-12-07T01:59:16;7.50;99.90
36444;DHT22;24692;45.642;13.806;2022-12-07T02:01:42;7.50;99.90
36444;DHT22;24692;45.642;13.806;2022-12-07T02:04:07;7.50;99.90
36444;DHT22;24692;45.642;13.806;2022-12-07T02:06:35;7.60;99.90
36444;DHT22;24692;45.642;13.806;2022-12-07T02:09:01;7.80;99.90
36444;DHT22;24692;45.642;13.806;2022-12-07T02:11:26;7.90;99.90
36444;DHT22;24692;45.642;13.806;2022-12-07T02:13:53;8.00;99.90
36444;DHT22;24692;45.642;13.806;2022-12-07T02:16:44;8.00;99.90
36444;DHT22;24692;45.642;13.806;2022-12-07T02:27:39;8.10;99.90
36444;DHT22;24692;45.642;13.806;2022-12-07T02:30:12;8.10;99.90
36444;DHT22;24692;45.642;13.806;2022-12-07T02:35:35;8.10;99.90
36444;DHT22;24692;45.642;13.806;2022-12-07T02:43:28;8.10;99.90
36444;DHT22;24692;45.642;13.806;2022-12-07T02:46:02;8.00;99.90
36444;DHT22;24692;45.642;13.806;2022-12-07T02:48:31;8.00;99.90
36444;DHT22;24692;45.642;13.806;2022-12-07T02:50:58;7.90;99.90
36444;DHT22;24692;45.642;13.806;2022-12-07T02:53:37;7.90;99.90
36444;DHT22;24692;45.642;13.806;2022-12-07T02:56:25;7.90;99.90
36444;DHT22;24692;45.642;13.806;2022-12-07T02:59:12;7.90;99.90
36444;DHT22;24692;45.642;13.806;2022-12-07T03:13:05;7.90;99.90
36444;DHT22;24692;45.642;13.806;2022-12-07T03:15:26;8.00;99.90
36444;DHT22;24692;45.642;13.806;2022-12-07T03:17:55;8.00;99.90
36444;DHT22;24692;45.642;13.806;2022-12-07T03:20:23;8.10;99.90
36444;DHT22;24692;45.642;13.806;2022-12-07T03:22:51;8.20;99.90
36444;DHT22;24692;45.642;13.806;2022-12-07T03:25:18;8.10;99.90
36444;DHT22;24692;45.642;13.806;2022-12-07T03:28:03;8.10;99.90
36444;DHT22;24692;45.642;13.806;2022-12-07T03:31:05;8.10;99.90
36444;DHT22;24692;45.642;13.806;2022-12-07T03:33:44;8.00;99.90
36444;DHT22;24692;45.642;13.806;2022-12-07T03:36:20;8.00;99.90
36444;DHT22;24692;45.642;13.806;2022-12-07T03:39:17;8.10;99.90
36444;DHT22;24692;45.642;13.806;2022-12-07T03:41:39;8.10;99.90
36444;DHT22;24692;45.642;13.806;2022-12-07T03:44:06;8.20;99.90
36444;DHT22;24692;45.642;13.806;2022-12-07T03:49:43;8.30;99.90
36444;DHT22;24692;45.642;13.806;2022-12-07T03:54:40;8.40;99.90
36444;DHT22;24692;45.642;13.806;2022-12-07T03:57:08;8.40;99.90
36444;DHT22;24692;45.642;13.806;2022-12-07T03:59:35;8.40;99.90
36444;DHT22;24692;45.642;13.806;2022-12-07T04:02:03;8.40;99.90
36444;DHT22;24692;45.642;13.806;2022-12-07T04:04:29;8.40;99.90
36444;DHT22;24692;45.642;13.806;2022-12-07T04:06:55;8.40;99.90
36444;DHT22;24692;45.642;13.806;2022-12-07T04:09:21;8.40;99.90
36444;DHT22;24692;45.642;13.806;2022-12-07T04:11:47;8.40;99.90
36444;DHT22;24692;45.642;13.806;2022-12-07T04:14:12;8.40;99.90
36444;DHT22;24692;45.642;13.806;2022-12-07T04:16:49;8.40;99.90
36444;DHT22;24692;45.642;13.806;2022-12-07T04:19:16;8.40;99.90
36444;DHT22;24692;45.642;13.806;2022-12-07T04:21:42;8.40;99.90
36444;DHT22;24692;45.642;13.806;2022-12-07T04:24:08;8.40;99.90
36444;DHT22;24692;45.642;13.806;2022-12-07T04:26:34;8.30;99.90
36444;DHT22;24692;45.642;13.806;2022-12-07T04:28:59;8.40;99.90
36444;DHT22;24692;45.642;13.806;2022-12-07T04:31:25;8.30;99.90
36444;DHT22;24692;45.642;13.806;2022-12-07T04:33:51;8.30;99.90
36444;DHT22;24692;45.642;13.806;2022-12-07T04:36:16;8.30;99.90
36444;DHT22;24692;45.642;13.806;2022-12-07T04:38:42;8.40;99.90
36444;DHT22;24692;45.642;13.806;2022-12-07T04:41:09;8.40;99.90
36444;DHT22;24692;45.642;13.806;2022-12-07T04:43:35;8.50;99.90
36444;DHT22;24692;45.642;13.806;2022-12-07T04:46:01;8.60;99.90
36444;DHT22;24692;45.642;13.806;2022-12-07T04:48:28;8.60;99.90
36444;DHT22;24692;45.642;13.806;2022-12-07T04:50:54;8.70;99.90
36444;DHT22;24692;45.642;13.806;2022-12-07T04:53:19;8.80;99.90
36444;DHT22;24692;45.642;13.806;2022-12-07T04:55:46;8.80;99.90
36444;DHT22;24692;45.642;13.806;2022-12-07T04:58:12;8.90;99.90
36444;DHT22;24692;45.642;13.806;2022-12-07T05:00:38;9.00;99.90
36444;DHT22;24692;45.642;13.806;2022-12-07T05:03:04;8.90;99.90
36444;DHT22;24692;45.642;13.806;2022-12-07T05:05:30;9.00;99.90
36444;DHT22;24692;45.642;13.806;2022-12-07T05:07:56;9.00;99.90
36444;DHT22;24692;45.642;13.806;2022-12-07T05:10:21;9.00;99.90
36444;DHT22;24692;45.642;13.806;2022-12-07T05:12:47;9.10;99.90
36444;DHT22;24692;45.642;13.806;2022-12-07T05:15:14;9.10;99.90
36444;DHT22;24692;45.642;13.806;2022-12-07T05:17:39;9.10;99.90
36444;DHT22;24692;45.642;13.806;2022-12-07T05:20:06;9.10;99.90
36444;DHT22;24692;45.642;13.806;2022-12-07T05:22:31;9.10;99.90
36444;DHT22;24692;45.642;13.806;2022-12-07T05:24:57;9.10;99.90
36444;DHT22;24692;45.642;13.806;2022-12-07T05:27:23;9.10;99.90
36444;DHT22;24692;45.642;13.806;2022-12-07T05:29:50;9.10;99.90
36444;DHT22;24692;45.642;13.806;2022-12-07T05:32:16;9.10;99.90
36444;DHT22;24692;45.642;13.806;2022-12-07T05:34:42;9.10;99.90
36444;DHT22;24692;45.642;13.806;2022-12-07T05:37:07;9.20;99.90
36444;DHT22;24692;45.642;13.806;2022-12-07T05:39:33;9.30;99.90
36444;DHT22;24692;45.642;13.806;2022-12-07T05:41:58;9.30;99.90
36444;DHT22;24692;45.642;13.806;2022-12-07T05:44:41;9.40;99.90
36444;DHT22;24692;45.642;13.806;2022-12-07T05:47:07;9.40;99.90
36444;DHT22;24692;45.642;13.806;2022-12-07T05:49:33;9.40;99.90
36444;DHT22;24692;45.642;13.806;2022-12-07T05:51:59;9.30;99.90
36444;DHT22;24692;45.642;13.806;2022-12-07T05:54:25;9.20;99.90
36444;DHT22;24692;45.642;13.806;2022-12-07T05:56:52;9.30;99.90
36444;DHT22;24692;45.642;13.806;2022-12-07T05:59:17;9.30;99.90
36444;DHT22;24692;45.642;13.806;2022-12-07T06:02:03;9.20;99.90
36444;DHT22;24692;45.642;13.806;2022-12-07T06:04:33;9.20;99.90
36444;DHT22;24692;45.642;13.806;2022-12-07T06:06:59;9.10;99.90
36444;DHT22;24692;45.642;13.806;2022-12-07T06:09:26;9.00;99.90
36444;DHT22;24692;45.642;13.806;2022-12-07T06:11:53;8.90;99.90
36444;DHT22;24692;45.642;13.806;2022-12-07T06:14:37;9.00;99.90
36444;DHT22;24692;45.642;13.806;2022-12-07T06:17:03;8.90;99.90
36444;DHT22;24692;45.642;13.806;2022-12-07T06:19:29;8.90;99.90
36444;DHT22;24692;45.642;13.806;2022-12-07T06:21:55;8.80;99.90
36444;DHT22;24692;45.642;13.806;2022-12-07T06:24:21;8.80;99.90
36444;DHT22;24692;45.642;13.806;2022-12-07T06:26:48;8.80;99.90
36444;DHT22;24692;45.642;13.806;2022-12-07T06:29:14;8.80;99.90
36444;DHT22;24692;45.642;13.806;2022-12-07T06:31:39;8.90;99.90
36444;DHT22;24692;45.642;13.806;2022-12-07T06:34:09;8.90;99.90
36444;DHT22;24692;45.642;13.806;2022-12-07T06:36:36;8.90;99.90
36444;DHT22;24692;45.642;13.806;2022-12-07T06:39:02;8.90;99.90
36444;DHT22;24692;45.642;13.806;2022-12-07T06:41:28;9.40;99.90
36444;DHT22;24692;45.642;13.806;2022-12-07T06:43:53;9.60;99.90
36444;DHT22;24692;45.642;13.806;2022-12-07T06:46:19;9.80;99.90
36444;DHT22;24692;45.642;13.806;2022-12-07T06:48:45;10.00;99.90
36444;DHT22;24692;45.642;13.806;2022-12-07T06:51:11;10.20;99.90
36444;DHT22;24692;45.642;13.806;2022-12-07T06:53:37;10.00;99.90
36444;DHT22;24692;45.642;13.806;2022-12-07T06:56:03;10.30;99.90
36444;DHT22;24692;45.642;13.806;2022-12-07T06:58:29;10.60;99.90
36444;DHT22;24692;45.642;13.806;2022-12-07T07:00:55;10.60;99.90
36444;DHT22;24692;45.642;13.806;2022-12-07T07:03:21;10.90;99.90
36444;DHT22;24692;45.642;13.806;2022-12-07T07:05:47;10.80;99.90
36444;DHT22;24692;45.642;13.806;2022-12-07T07:08:13;10.80;99.90
36444;DHT22;24692;45.642;13.806;2022-12-07T07:10:39;10.90;99.90
36444;DHT22;24692;45.642;13.806;2022-12-07T07:13:05;10.60;99.90
36444;DHT22;24692;45.642;13.806;2022-12-07T07:15:31;10.40;99.90
36444;DHT22;24692;45.642;13.806;2022-12-07T07:17:58;10.30;99.90
36444;DHT22;24692;45.642;13.806;2022-12-07T07:20:24;10.20;99.90
36444;DHT22;24692;45.642;13.806;2022-12-07T07:22:49;10.20;99.90
36444;DHT22;24692;45.642;13.806;2022-12-07T07:25:15;10.20;99.90
36444;DHT22;24692;45.642;13.806;2022-12-07T07:27:41;10.10;99.90
36444;DHT22;24692;45.642;13.806;2022-12-07T07:30:08;10.00;99.90
36444;DHT22;24692;45.642;13.806;2022-12-07T07:32:34;9.80;99.90
36444;DHT22;24692;45.642;13.806;2022-12-07T07:34:59;9.70;99.90
36444;DHT22;24692;45.642;13.806;2022-12-07T07:37:25;9.70;99.90
36444;DHT22;24692;45.642;13.806;2022-12-07T07:39:51;9.90;99.90
36444;DHT22;24692;45.642;13.806;2022-12-07T07:42:17;10.10;99.90
36444;DHT22;24692;45.642;13.806;2022-12-07T07:44:42;10.30;99.90
36444;DHT22;24692;45.642;13.806;2022-12-07T07:47:08;10.80;99.90
36444;DHT22;24692;45.642;13.806;2022-12-07T07:49:34;11.20;99.90
36444;DHT22;24692;45.642;13.806;2022-12-07T07:52:00;12.00;99.90
36444;DHT22;24692;45.642;13.806;2022-12-07T07:54:25;12.90;99.90
36444;DHT22;24692;45.642;13.806;2022-12-07T07:56:52;14.10;99.90
36444;DHT22;24692;45.642;13.806;2022-12-07T07:59:18;14.30;99.90
36444;DHT22;24692;45.642;13.806;2022-12-07T08:01:43;15.00;99.90
36444;DHT22;24692;45.642;13.806;2022-12-07T08:04:09;15.60;99.90
36444;DHT22;24692;45.642;13.806;2022-12-07T08:06:35;15.90;99.90
36444;DHT22;24692;45.642;13.806;2022-12-07T08:09:01;15.90;99.90
36444;DHT22;24692;45.642;13.806;2022-12-07T08:11:26;15.00;99.90
36444;DHT22;24692;45.642;13.806;2022-12-07T08:13:52;14.20;99.90
36444;DHT22;24692;45.642;13.806;2022-12-07T08:16:18;13.80;99.90
36444;DHT22;24692;45.642;13.806;2022-12-07T08:18:43;13.40;99.90
36444;DHT22;24692;45.642;13.806;2022-12-07T08:21:14;13.30;99.90
36444;DHT22;24692;45.642;13.806;2022-12-07T08:23:40;13.80;99.90
36444;DHT22;24692;45.642;13.806;2022-12-07T08:26:09;14.60;99.90
36444;DHT22;24692;45.642;13.806;2022-12-07T08:28:35;15.80;99.90
36444;DHT22;24692;45.642;13.806;2022-12-07T08:31:02;16.30;99.90
36444;DHT22;24692;45.642;13.806;2022-12-07T08:33:28;15.80;99.90
36444;DHT22;24692;45.642;13.806;2022-12-07T08:35:54;15.20;99.90
36444;DHT22;24692;45.642;13.806;2022-12-07T08:38:20;14.50;99.90
36444;DHT22;24692;45.642;13.806;2022-12-07T08:40:54;13.70;99.90
36444;DHT22;24692;45.642;13.806;2022-12-07T08:43:20;13.00;99.90
36444;DHT22;24692;45.642;13.806;2022-12-07T08:45:52;12.70;99.90
36444;DHT22;24692;45.642;13.806;2022-12-07T08:48:22;12.70;99.90
36444;DHT22;24692;45.642;13.806;2022-12-07T08:50:50;12.90;99.90
36444;DHT22;24692;45.642;13.806;2022-12-07T08:53:17;13.00;99.90
36444;DHT22;24692;45.642;13.806;2022-12-07T08:55:45;13.40;99.90
36444;DHT22;24692;45.642;13.806;2022-12-07T08:58:11;13.40;99.90
36444;DHT22;24692;45.642;13.806;2022-12-07T09:00:37;13.10;99.90
36444;DHT22;24692;45.642;13.806;2022-12-07T09:03:02;13.00;99.90
36444;DHT22;24692;45.642;13.806;2022-12-07T09:05:28;13.00;99.90
36444;DHT22;24692;45.642;13.806;2022-12-07T09:07:57;13.40;99.90
36444;DHT22;24692;45.642;13.806;2022-12-07T09:10:25;13.50;99.90
36444;DHT22;24692;45.642;13.806;2022-12-07T09:12:51;13.90;99.90
36444;DHT22;24692;45.642;13.806;2022-12-07T09:15:17;14.20;99.90
36444;DHT22;24692;45.642;13.806;2022-12-07T09:17:43;14.60;99.90
36444;DHT22;24692;45.642;13.806;2022-12-07T09:20:09;15.90;99.90
36444;DHT22;24692;45.642;13.806;2022-12-07T09:22:35;17.00;99.90
36444;DHT22;24692;45.642;13.806;2022-12-07T09:25:01;17.80;99.90
36444;DHT22;24692;45.642;13.806;2022-12-07T09:27:27;18.30;99.90
36444;DHT22;24692;45.642;13.806;2022-12-07T09:29:53;18.50;99.90
36444;DHT22;24692;45.642;13.806;2022-12-07T09:32:19;18.90;99.90
36444;DHT22;24692;45.642;13.806;2022-12-07T09:34:45;18.70;99.90
36444;DHT22;24692;45.642;13.806;2022-12-07T09:37:11;18.80;99.90
36444;DHT22;24692;45.642;13.806;2022-12-07T09:39:40;18.70;99.90
36444;DHT22;24692;45.642;13.806;2022-12-07T09:42:06;18.70;99.90
36444;DHT22;24692;45.642;13.806;2022-12-07T09:44:33;18.40;99.90
36444;DHT22;24692;45.642;13.806;2022-12-07T09:47:00;19.00;99.90
36444;DHT22;24692;45.642;13.806;2022-12-07T09:49:29;19.70;99.90
36444;DHT22;24692;45.642;13.806;2022-12-07T09:54:36;20.50;99.90
36444;DHT22;24692;45.642;13.806;2022-12-07T09:57:06;20.50;99.90
36444;DHT22;24692;45.642;13.806;2022-12-07T09:59:33;20.50;99.90
36444;DHT22;24692;45.642;13.806;2022-12-07T10:02:37;20.60;99.90
36444;DHT22;24692;45.642;13.806;2022-12-07T10:05:10;20.40;99.90
36444;DHT22;24692;45.642;13.806;2022-12-07T10:07:37;20.20;99.90
36444;DHT22;24692;45.642;13.806;2022-12-07T10:10:06;20.30;99.90
36444;DHT22;24692;45.642;13.806;2022-12-07T10:12:53;19.60;99.90
36444;DHT22;24692;45.642;13.806;2022-12-07T10:15:19;19.30;99.90
36444;DHT22;24692;45.642;13.806;2022-12-07T10:17:51;19.50;99.90
36444;DHT22;24692;45.642;13.806;2022-12-07T10:20:20;20.20;99.90
36444;DHT22;24692;45.642;13.806;2022-12-07T10:23:08;20.90;99.90
36444;DHT22;24692;45.642;13.806;2022-12-07T10:25:39;20.80;99.90
36444;DHT22;24692;45.642;13.806;2022-12-07T10:28:15;21.00;99.90
36444;DHT22;24692;45.642;13.806;2022-12-07T10:31:00;21.30;99.90
36444;DHT22;24692;45.642;13.806;2022-12-07T10:36:00;21.60;99.90
36444;DHT22;24692;45.642;13.806;2022-12-07T10:38:27;21.20;99.90
36444;DHT22;24692;45.642;13.806;2022-12-07T10:41:06;20.90;99.90
36444;DHT22;24692;45.642;13.806;2022-12-07T10:43:32;20.50;99.90
36444;DHT22;24692;45.642;13.806;2022-12-07T10:59:57;18.50;99.90
36444;DHT22;24692;45.642;13.806;2022-12-07T11:10:22;18.50;99.90
36444;DHT22;24692;45.642;13.806;2022-12-07T11:20:56;20.80;99.90
36444;DHT22;24692;45.642;13.806;2022-12-07T11:29:21;20.80;99.90
36444;DHT22;24692;45.642;13.806;2022-12-07T11:31:57;20.90;99.90
36444;DHT22;24692;45.642;13.806;2022-12-07T11:37:23;21.00;99.90
36444;DHT22;24692;45.642;13.806;2022-12-07T11:39:54;20.60;99.90
36444;DHT22;24692;45.642;13.806;2022-12-07T11:47:48;21.50;99.90
36444;DHT22;24692;45.642;13.806;2022-12-07T12:03:47;20.80;99.90
36444;DHT22;24692;45.642;13.806;2022-12-07T12:06:13;21.10;99.90
36444;DHT22;24692;45.642;13.806;2022-12-07T12:08:55;21.40;99.90
36444;DHT22;24692;45.642;13.806;2022-12-07T12:21:57;20.90;99.90
36444;DHT22;24692;45.642;13.806;2022-12-07T12:24:28;20.20;99.90
36444;DHT22;24692;45.642;13.806;2022-12-07T12:27:06;20.20;99.90
36444;DHT22;24692;45.642;13.806;2022-12-07T12:29:41;20.40;99.90
36444;DHT22;24692;45.642;13.806;2022-12-07T12:32:18;19.20;99.90
36444;DHT22;24692;45.642;13.806;2022-12-07T12:42:47;19.40;99.90
36444;DHT22;24692;45.642;13.806;2022-12-07T12:45:28;20.40;99.90
36444;DHT22;24692;45.642;13.806;2022-12-07T12:48:28;20.20;99.90
36444;DHT22;24692;45.642;13.806;2022-12-07T12:54:10;20.10;99.90
36444;DHT22;24692;45.642;13.806;2022-12-07T12:56:59;20.20;99.90
36444;DHT22;24692;45.642;13.806;2022-12-07T12:59:34;20.30;99.90
36444;DHT22;24692;45.642;13.806;2022-12-07T13:18:36;20.40;99.90
36444;DHT22;24692;45.642;13.806;2022-12-07T13:28:50;18.60;99.90
36444;DHT22;24692;45.642;13.806;2022-12-07T13:33:50;17.10;99.90
36444;DHT22;24692;45.642;13.806;2022-12-07T13:36:27;15.70;99.90
36444;DHT22;24692;45.642;13.806;2022-12-07T13:38:58;15.10;99.90
36444;DHT22;24692;45.642;13.806;2022-12-07T13:41:29;15.10;99.90
36444;DHT22;24692;45.642;13.806;2022-12-07T13:44:10;14.90;99.90
36444;DHT22;24692;45.642;13.806;2022-12-07T13:46:51;15.20;99.90
36444;DHT22;24692;45.642;13.806;2022-12-07T13:49:29;15.00;99.90
36444;DHT22;24692;45.642;13.806;2022-12-07T13:52:43;14.60;99.90
36444;DHT22;24692;45.642;13.806;2022-12-07T13:55:14;14.50;99.90
36444;DHT22;24692;45.642;13.806;2022-12-07T13:57:41;14.70;99.90
36444;DHT22;24692;45.642;13.806;2022-12-07T14:00:28;15.70;99.90
36444;DHT22;24692;45.642;13.806;2022-12-07T14:02:59;16.90;99.90
36444;DHT22;24692;45.642;13.806;2022-12-07T14:05:29;17.30;99.90
36444;DHT22;24692;45.642;13.806;2022-12-07T14:12:52;17.60;99.90
36444;DHT22;24692;45.642;13.806;2022-12-07T14:15:28;17.40;99.90
36444;DHT22;24692;45.642;13.806;2022-12-07T14:17:55;17.40;99.90
36444;DHT22;24692;45.642;13.806;2022-12-07T14:20:37;16.50;99.90
36444;DHT22;24692;45.642;13.806;2022-12-07T14:23:05;16.40;99.90
36444;DHT22;24692;45.642;13.806;2022-12-07T14:25:50;16.50;99.90
36444;DHT22;24692;45.642;13.806;2022-12-07T14:28:30;16.10;99.90
36444;DHT22;24692;45.642;13.806;2022-12-07T14:30:56;16.20;99.90
36444;DHT22;24692;45.642;13.806;2022-12-07T14:33:22;16.10;99.90
36444;DHT22;24692;45.642;13.806;2022-12-07T14:35:48;16.20;99.90
36444;DHT22;24692;45.642;13.806;2022-12-07T14:38:15;16.10;99.90
36444;DHT22;24692;45.642;13.806;2022-12-07T14:40:41;16.10;99.90
36444;DHT22;24692;45.642;13.806;2022-12-07T14:43:12;15.90;99.90
36444;DHT22;24692;45.642;13.806;2022-12-07T14:45:38;15.90;99.90
36444;DHT22;24692;45.642;13.806;2022-12-07T14:48:05;15.50;99.90
36444;DHT22;24692;45.642;13.806;2022-12-07T14:50:36;15.10;99.90
36444;DHT22;24692;45.642;13.806;2022-12-07T14:53:14;14.80;99.90
36444;DHT22;24692;45.642;13.806;2022-12-07T14:55:39;14.60;99.90
36444;DHT22;24692;45.642;13.806;2022-12-07T14:58:05;14.70;99.90
36444;DHT22;24692;45.642;13.806;2022-12-07T15:00:31;14.60;99.90
36444;DHT22;24692;45.642;13.806;2022-12-07T15:02:58;13.80;99.90
36444;DHT22;24692;45.642;13.806;2022-12-07T15:05:24;13.70;99.90
36444;DHT22;24692;45.642;13.806;2022-12-07T15:07:51;13.50;99.90
36444;DHT22;24692;45.642;13.806;2022-12-07T15:10:26;13.50;99.90
36444;DHT22;24692;45.642;13.806;2022-12-07T15:12:58;13.20;99.90
36444;DHT22;24692;45.642;13.806;2022-12-07T15:15:44;12.80;99.90
36444;DHT22;24692;45.642;13.806;2022-12-07T15:18:10;12.30;99.90
36444;DHT22;24692;45.642;13.806;2022-12-07T15:20:36;12.00;99.90
36444;DHT22;24692;45.642;13.806;2022-12-07T15:23:01;11.60;99.90
36444;DHT22;24692;45.642;13.806;2022-12-07T15:25:27;11.40;99.90
36444;DHT22;24692;45.642;13.806;2022-12-07T15:27:53;11.30;99.90
36444;DHT22;24692;45.642;13.806;2022-12-07T15:30:19;11.30;99.90
36444;DHT22;24692;45.642;13.806;2022-12-07T15:32:49;11.20;99.90
36444;DHT22;24692;45.642;13.806;2022-12-07T15:35:15;11.20;99.90
36444;DHT22;24692;45.642;13.806;2022-12-07T15:37:40;11.10;99.90
36444;DHT22;24692;45.642;13.806;2022-12-07T15:40:06;11.10;99.90
36444;DHT22;24692;45.642;13.806;2022-12-07T15:42:32;11.20;99.90
36444;DHT22;24692;45.642;13.806;2022-12-07T15:44:58;11.10;99.90
36444;DHT22;24692;45.642;13.806;2022-12-07T15:47:34;11.00;99.90
36444;DHT22;24692;45.642;13.806;2022-12-07T15:50:05;11.00;99.90
36444;DHT22;24692;45.642;13.806;2022-12-07T15:52:31;11.00;99.90
36444;DHT22;24692;45.642;13.806;2022-12-07T15:54:57;10.90;99.90
36444;DHT22;24692;45.642;13.806;2022-12-07T15:57:25;10.80;99.90
36444;DHT22;24692;45.642;13.806;2022-12-07T15:59:51;10.90;99.90
36444;DHT22;24692;45.642;13.806;2022-12-07T16:02:17;10.80;99.90
36444;DHT22;24692;45.642;13.806;2022-12-07T16:04:43;10.60;99.90
36444;DHT22;24692;45.642;13.806;2022-12-07T16:07:10;10.60;99.90
36444;DHT22;24692;45.642;13.806;2022-12-07T16:09:37;10.60;99.90
36444;DHT22;24692;45.642;13.806;2022-12-07T16:12:03;10.70;99.90
36444;DHT22;24692;45.642;13.806;2022-12-07T16:14:29;10.70;99.90
36444;DHT22;24692;45.642;13.806;2022-12-07T16:16:57;10.60;99.90
36444;DHT22;24692;45.642;13.806;2022-12-07T16:19:23;10.40;99.90
36444;DHT22;24692;45.642;13.806;2022-12-07T16:21:48;10.30;99.90
36444;DHT22;24692;45.642;13.806;2022-12-07T16:24:14;10.40;99.90
36444;DHT22;24692;45.642;13.806;2022-12-07T16:26:40;10.30;99.90
36444;DHT22;24692;45.642;13.806;2022-12-07T16:29:06;10.10;99.90
36444;DHT22;24692;45.642;13.806;2022-12-07T16:31:32;10.00;99.90
36444;DHT22;24692;45.642;13.806;2022-12-07T16:33:58;9.90;99.90
36444;DHT22;24692;45.642;13.806;2022-12-07T16:36:24;10.00;99.90
36444;DHT22;24692;45.642;13.806;2022-12-07T16:38:51;10.00;99.90
36444;DHT22;24692;45.642;13.806;2022-12-07T16:41:17;9.80;99.90
36444;DHT22;24692;45.642;13.806;2022-12-07T16:43:43;9.70;99.90
36444;DHT22;24692;45.642;13.806;2022-12-07T16:46:09;9.80;99.90
36444;DHT22;24692;45.642;13.806;2022-12-07T16:48:38;9.80;99.90
36444;DHT22;24692;45.642;13.806;2022-12-07T16:51:09;9.70;99.90
36444;DHT22;24692;45.642;13.806;2022-12-07T16:53:35;9.80;99.90
36444;DHT22;24692;45.642;13.806;2022-12-07T16:56:01;9.80;99.90
36444;DHT22;24692;45.642;13.806;2022-12-07T16:58:27;9.70;99.90
36444;DHT22;24692;45.642;13.806;2022-12-07T17:00:53;9.60;99.90
36444;DHT22;24692;45.642;13.806;2022-12-07T17:03:19;9.60;99.90
36444;DHT22;24692;45.642;13.806;2022-12-07T17:05:45;9.60;99.90
36444;DHT22;24692;45.642;13.806;2022-12-07T17:08:13;9.70;99.90
36444;DHT22;24692;45.642;13.806;2022-12-07T17:10:41;9.60;99.90
36444;DHT22;24692;45.642;13.806;2022-12-07T17:13:07;9.60;99.90
36444;DHT22;24692;45.642;13.806;2022-12-07T17:16:00;9.60;99.90
36444;DHT22;24692;45.642;13.806;2022-12-07T17:18:28;9.70;99.90
36444;DHT22;24692;45.642;13.806;2022-12-07T17:20:54;9.70;99.90
36444;DHT22;24692;45.642;13.806;2022-12-07T17:23:20;9.70;99.90
36444;DHT22;24692;45.642;13.806;2022-12-07T17:25:45;9.80;99.90
36444;DHT22;24692;45.642;13.806;2022-12-07T17:28:11;9.60;99.90
36444;DHT22;24692;45.642;13.806;2022-12-07T17:30:38;9.60;99.90
36444;DHT22;24692;45.642;13.806;2022-12-07T17:33:03;9.70;99.90
36444;DHT22;24692;45.642;13.806;2022-12-07T17:35:29;9.70;99.90
36444;DHT22;24692;45.642;13.806;2022-12-07T17:37:55;9.70;99.90
36444;DHT22;24692;45.642;13.806;2022-12-07T17:40:21;9.70;99.90
36444;DHT22;24692;45.642;13.806;2022-12-07T17:42:47;9.50;99.90
36444;DHT22;24692;45.642;13.806;2022-12-07T17:45:16;9.40;99.90
36444;DHT22;24692;45.642;13.806;2022-12-07T17:47:42;9.30;99.90
36444;DHT22;24692;45.642;13.806;2022-12-07T17:50:09;9.50;99.90
36444;DHT22;24692;45.642;13.806;2022-12-07T17:52:39;9.30;99.90
36444;DHT22;24692;45.642;13.806;2022-12-07T17:55:23;9.30;99.90
36444;DHT22;24692;45.642;13.806;2022-12-07T17:57:49;9.30;99.90
36444;DHT22;24692;45.642;13.806;2022-12-07T18:00:16;9.30;99.90
36444;DHT22;24692;45.642;13.806;2022-12-07T18:02:42;9.30;99.90
36444;DHT22;24692;45.642;13.806;2022-12-07T18:05:08;9.40;99.90
36444;DHT22;24692;45.642;13.806;2022-12-07T18:07:34;9.50;99.90